createdAt,value
2019-04-05T00:01:57.689Z,4.60
2019-04-05T00:04:23.884Z,4.60
2019-04-05T00:06:50.043Z,4.70
2019-04-05T00:09:16.344Z,4.60
2019-04-05T00:11:42.491Z,4.70
2019-04-05T00:14:08.768Z,4.60
2019-04-05T00:16:35.060Z,4.60
2019-04-05T00:19:01.251Z,4.70
2019-04-05T00:21:27.425Z,4.70
2019-04-05T00:23:53.601Z,4.70
2019-04-05T00:26:19.756Z,4.60
2019-04-05T00:28:45.960Z,4.60
2019-04-05T00:31:12.193Z,4.60
2019-04-05T00:33:38.385Z,4.60
2019-04-05T00:36:04.538Z,4.60
2019-04-05T00:38:30.717Z,4.60
2019-04-05T00:40:56.881Z,4.60
2019-04-05T00:43:23.057Z,4.60
2019-04-05T00:45:49.245Z,4.50
2019-04-05T00:48:15.436Z,4.50
2019-04-05T00:50:41.605Z,4.50
2019-04-05T00:53:07.781Z,4.60
2019-04-05T00:55:33.943Z,4.60
2019-04-05T00:58:00.118Z,4.50
2019-04-05T01:00:27.367Z,4.50
2019-04-05T01:02:53.675Z,4.50
2019-04-05T01:05:19.863Z,4.50
2019-04-05T01:07:46.161Z,4.50
2019-04-05T01:10:12.849Z,4.50
2019-04-05T01:12:39.508Z,4.50
2019-04-05T01:15:07.589Z,4.60
2019-04-05T01:17:33.962Z,4.60
2019-04-05T01:20:01.604Z,4.60
2019-04-05T01:22:30.576Z,4.60
2019-04-05T01:24:56.836Z,4.60
2019-04-05T01:27:23.820Z,4.60
2019-04-05T01:29:49.995Z,4.60
2019-04-05T01:32:16.180Z,4.60
2019-04-05T01:34:42.370Z,4.60
2019-04-05T01:37:08.875Z,4.50
2019-04-05T01:39:35.091Z,4.60
2019-04-05T01:42:01.357Z,4.60
2019-04-05T01:44:27.945Z,4.60
2019-04-05T01:46:55.119Z,4.60
2019-04-05T01:49:21.289Z,4.70
2019-04-05T01:51:47.679Z,4.70
2019-04-05T01:54:13.854Z,4.70
2019-04-05T01:56:40.037Z,4.70
2019-04-05T01:59:06.229Z,4.70
2019-04-05T02:01:32.537Z,4.60
2019-04-05T02:03:58.793Z,4.50
2019-04-05T02:06:25.451Z,4.50
2019-04-05T02:08:52.929Z,4.40
2019-04-05T02:11:19.257Z,4.50
2019-04-05T02:13:45.600Z,4.60
2019-04-05T02:16:11.773Z,4.60
2019-04-05T02:18:37.958Z,4.60
2019-04-05T02:21:04.386Z,4.50
2019-04-05T02:23:30.544Z,4.50
2019-04-05T02:25:56.736Z,4.60
2019-04-05T02:28:25.377Z,4.60
2019-04-05T02:30:51.002Z,4.60
2019-04-05T02:33:17.385Z,4.60
2019-04-05T02:35:43.680Z,4.70
2019-04-05T02:38:09.837Z,4.70
2019-04-05T02:40:38.404Z,4.60
2019-04-05T02:43:06.244Z,4.60
2019-04-05T02:45:35.499Z,4.50
2019-04-05T02:48:05.504Z,4.50
2019-04-05T02:50:34.575Z,4.50
2019-04-05T02:53:04.508Z,4.50
2019-04-05T02:55:31.317Z,4.60
2019-04-05T02:58:00.732Z,4.60
2019-04-05T03:00:27.696Z,4.60
2019-04-05T03:02:54.180Z,4.60
2019-04-05T03:05:21.228Z,4.50
2019-04-05T03:07:47.455Z,4.50
2019-04-05T03:10:34.110Z,4.50
2019-04-05T03:13:00.592Z,4.50
2019-04-05T03:15:27.038Z,4.50
2019-04-05T03:17:53.212Z,4.60
2019-04-05T03:20:19.591Z,4.60
2019-04-05T03:22:45.954Z,4.50
2019-04-05T03:25:12.233Z,4.50
2019-04-05T03:27:38.603Z,4.50
2019-04-05T03:30:05.994Z,4.50
2019-04-05T03:32:32.272Z,4.50
2019-04-05T03:35:00.104Z,4.50
2019-04-05T03:37:26.685Z,4.50
2019-04-05T03:39:54.074Z,4.50
2019-04-05T03:42:20.632Z,4.50
2019-04-05T03:44:46.918Z,4.50
2019-04-05T03:47:13.852Z,4.60
2019-04-05T03:49:42.401Z,4.60
2019-04-05T03:52:08.665Z,4.60
2019-04-05T03:54:34.925Z,4.70
2019-04-05T03:57:01.845Z,4.70
2019-04-05T03:59:27.998Z,4.70
2019-04-05T04:01:54.272Z,4.60
2019-04-05T04:04:20.524Z,4.60
2019-04-05T04:06:46.991Z,4.60
2019-04-05T04:09:13.356Z,4.70
2019-04-05T04:11:39.884Z,4.80
2019-04-05T04:14:06.062Z,4.90
2019-04-05T04:16:32.601Z,4.80
2019-04-05T04:18:59.086Z,4.70
2019-04-05T04:21:37.425Z,4.70
2019-04-05T04:24:06.411Z,4.60
2019-04-05T04:26:32.788Z,4.70
2019-04-05T04:28:58.976Z,4.70
2019-04-05T04:31:25.439Z,4.70
2019-04-05T04:33:51.641Z,4.70
2019-04-05T04:36:18.028Z,4.70
2019-04-05T04:38:44.180Z,4.70
2019-04-05T04:41:10.878Z,4.80
2019-04-05T04:43:37.072Z,4.70
2019-04-05T04:46:03.604Z,4.70
2019-04-05T04:48:31.008Z,4.80
2019-04-05T04:50:57.439Z,4.80
2019-04-05T04:53:24.186Z,4.70
2019-04-05T04:55:50.577Z,4.70
2019-04-05T04:58:16.765Z,4.80
2019-04-05T05:00:43.028Z,4.80
2019-04-05T05:03:09.512Z,4.80
2019-04-05T05:05:35.872Z,4.80
2019-04-05T05:08:02.865Z,4.80
2019-04-05T05:10:29.306Z,4.90
2019-04-05T05:12:55.578Z,4.90
2019-04-05T05:15:22.468Z,5.00
2019-04-05T05:17:58.397Z,4.90
2019-04-05T05:20:17.626Z,4.80
2019-04-05T05:22:44.314Z,4.80
2019-04-05T05:25:11.405Z,4.90
2019-04-05T05:27:37.557Z,5.00
2019-04-05T05:30:07.228Z,5.00
2019-04-05T05:32:43.113Z,5.00
2019-04-05T05:35:09.398Z,5.00
2019-04-05T05:37:35.590Z,5.10
2019-04-05T05:40:06.468Z,5.10
2019-04-05T05:42:32.838Z,5.20
2019-04-05T05:44:59.320Z,5.10
2019-04-05T05:47:25.508Z,5.00
2019-04-05T05:49:51.688Z,5.00
2019-04-05T05:52:18.835Z,5.00
2019-04-05T05:54:45.028Z,5.20
2019-04-05T05:57:13.216Z,5.30
2019-04-05T05:59:39.374Z,5.30
2019-04-05T06:02:07.248Z,5.30
2019-04-05T06:04:33.705Z,5.30
2019-04-05T06:06:59.888Z,5.30
2019-04-05T06:09:26.053Z,5.20
2019-04-05T06:11:52.572Z,5.30
2019-04-05T06:14:18.732Z,5.40
2019-04-05T06:16:46.521Z,5.30
2019-04-05T06:19:12.997Z,5.30
2019-04-05T06:21:39.224Z,5.20
2019-04-05T06:24:05.486Z,5.30
2019-04-05T06:26:31.772Z,5.30
2019-04-05T06:28:57.936Z,5.30
2019-04-05T06:31:24.164Z,5.20
2019-04-05T06:33:50.322Z,5.30
2019-04-05T06:36:16.500Z,5.30
2019-04-05T06:38:42.675Z,5.40
2019-04-05T06:41:08.879Z,5.50
2019-04-05T06:43:35.064Z,5.60
2019-04-05T06:46:01.367Z,5.50
2019-04-05T06:48:29.269Z,5.60
2019-04-05T06:50:55.706Z,5.80
2019-04-05T06:53:21.948Z,5.80
2019-04-05T06:55:48.365Z,5.90
2019-04-05T06:58:19.753Z,5.90
2019-04-05T07:00:56.054Z,6.00
2019-04-05T07:03:13.481Z,6.10
2019-04-05T07:05:38.883Z,6.20
2019-04-05T07:08:05.263Z,6.30
2019-04-05T07:10:31.460Z,6.50
2019-04-05T07:12:59.062Z,6.60
2019-04-05T07:15:25.677Z,6.50
2019-04-05T07:17:51.943Z,6.40
2019-04-05T07:20:18.240Z,6.50
2019-04-05T07:22:44.390Z,6.40
2019-04-05T07:25:10.778Z,6.40
2019-04-05T07:27:36.972Z,6.40
2019-04-05T07:30:06.820Z,6.30
2019-04-05T07:32:33.017Z,6.30
2019-04-05T07:34:59.199Z,6.40
2019-04-05T07:37:25.378Z,6.20
2019-04-05T07:39:51.545Z,6.00
2019-04-05T07:42:19.746Z,6.00
2019-04-05T07:44:46.908Z,6.20
2019-04-05T07:47:13.087Z,6.20
2019-04-05T07:49:39.260Z,6.60
2019-04-05T07:52:05.597Z,7.10
2019-04-05T07:54:31.756Z,7.30
2019-04-05T07:56:57.944Z,7.40
2019-04-05T07:59:24.336Z,8.00
2019-04-05T08:01:50.525Z,8.30
2019-04-05T08:04:16.675Z,8.60
2019-04-05T08:06:45.707Z,8.90
2019-04-05T08:09:12.385Z,9.00
2019-04-05T08:11:40.479Z,9.40
2019-04-05T08:14:07.037Z,9.30
2019-04-05T08:16:33.240Z,9.30
2019-04-05T08:18:59.493Z,9.40
2019-04-05T08:21:25.688Z,9.60
2019-04-05T08:23:51.911Z,10.10
2019-04-05T08:26:18.110Z,9.70
2019-04-05T08:28:44.355Z,9.80
2019-04-05T08:31:11.449Z,9.60
2019-04-05T08:33:38.670Z,10.20
2019-04-05T08:36:04.841Z,10.40
2019-04-05T08:38:31.033Z,10.90
2019-04-05T08:40:57.211Z,10.80
2019-04-05T08:43:23.446Z,10.70
2019-04-05T08:45:49.592Z,10.40
2019-04-05T08:48:16.100Z,10.90
2019-04-05T08:50:42.295Z,10.60
2019-04-05T08:53:08.477Z,10.70
2019-04-05T08:55:34.661Z,11.30
2019-04-05T08:58:00.860Z,11.70
2019-04-05T09:00:27.045Z,11.70
2019-04-05T09:02:53.327Z,11.80
2019-04-05T09:05:19.629Z,11.90
2019-04-05T09:07:45.990Z,12.30
2019-04-05T09:10:12.366Z,12.90
2019-04-05T09:12:38.540Z,13.20
2019-04-05T09:15:05.138Z,12.50
2019-04-05T09:17:31.384Z,11.70
2019-04-05T09:19:59.300Z,11.20
2019-04-05T09:22:25.487Z,11.50
2019-04-05T09:24:51.671Z,10.90
2019-04-05T09:27:17.828Z,10.80
2019-04-05T09:29:44.322Z,10.80
2019-04-05T09:32:10.475Z,10.20
2019-04-05T09:34:36.661Z,9.90
2019-04-05T09:37:02.916Z,9.60
2019-04-05T09:39:29.085Z,9.60
2019-04-05T09:41:55.264Z,9.40
2019-04-05T09:44:23.686Z,10.00
2019-04-05T09:46:51.135Z,10.00
2019-04-05T09:49:17.589Z,10.00
2019-04-05T09:51:43.773Z,10.40
2019-04-05T09:54:09.935Z,10.40
2019-04-05T09:56:36.125Z,10.60
2019-04-05T09:59:02.285Z,10.20
2019-04-05T10:01:29.514Z,9.70
2019-04-05T10:03:55.704Z,9.00
2019-04-05T10:06:21.885Z,8.70
2019-04-05T10:08:48.062Z,8.80
2019-04-05T10:11:14.247Z,8.40
2019-04-05T10:13:40.457Z,8.10
2019-04-05T10:16:06.664Z,8.10
2019-04-05T10:18:32.832Z,7.80
2019-04-05T10:21:00.467Z,7.80
2019-04-05T10:23:26.742Z,8.10
2019-04-05T10:25:52.919Z,8.30
2019-04-05T10:28:19.113Z,8.10
2019-04-05T10:30:45.303Z,7.90
2019-04-05T10:33:11.497Z,8.20
2019-04-05T10:35:37.740Z,7.90
2019-04-05T10:38:04.912Z,8.00
2019-04-05T10:40:31.125Z,7.90
2019-04-05T10:42:57.615Z,8.20
2019-04-05T10:45:24.219Z,8.60
2019-04-05T10:47:50.376Z,8.50
2019-04-05T10:50:17.839Z,8.80
2019-04-05T10:52:44.052Z,8.90
2019-04-05T10:55:10.415Z,9.10
2019-04-05T10:57:39.690Z,9.20
2019-04-05T11:00:09.080Z,9.40
2019-04-05T11:02:35.249Z,9.60
2019-04-05T11:05:01.850Z,9.30
2019-04-05T11:07:28.240Z,9.50
2019-04-05T11:09:54.403Z,9.60
2019-04-05T11:12:20.669Z,9.80
2019-04-05T11:14:46.904Z,10.00
2019-04-05T11:17:13.237Z,9.60
2019-04-05T11:19:39.428Z,10.10
2019-04-05T11:22:05.768Z,10.80
2019-04-05T11:24:32.138Z,10.90
2019-04-05T11:26:58.332Z,10.50
2019-04-05T11:29:24.488Z,10.60
2019-04-05T11:31:56.947Z,10.40
2019-04-05T11:34:19.290Z,10.20
2019-04-05T11:36:45.736Z,9.90
2019-04-05T11:39:12.853Z,9.70
2019-04-05T11:41:39.210Z,10.00
2019-04-05T11:44:05.396Z,9.80
2019-04-05T11:46:35.008Z,9.80
2019-04-05T11:49:03.250Z,9.80
2019-04-05T11:51:29.267Z,9.60
2019-04-05T11:53:55.469Z,9.20
2019-04-05T11:56:21.776Z,9.30
2019-04-05T11:58:49.064Z,9.40
2019-04-05T12:01:17.970Z,9.50
2019-04-05T12:03:44.524Z,9.90
2019-04-05T12:06:10.754Z,10.10
2019-04-05T12:08:37.044Z,10.00
2019-04-05T12:11:04.007Z,9.90
2019-04-05T12:13:31.002Z,10.20
2019-04-05T12:15:59.621Z,10.80
2019-04-05T12:18:26.624Z,10.60
2019-04-05T12:20:59.977Z,12.00
2019-04-05T12:23:24.060Z,12.70
2019-04-05T12:25:54.693Z,13.20
2019-04-05T12:28:22.011Z,13.30
2019-04-05T12:30:49.704Z,12.00
2019-04-05T12:33:19.246Z,12.00
2019-04-05T12:35:45.095Z,11.80
2019-04-05T12:38:14.272Z,11.80
2019-04-05T12:40:41.351Z,12.30
2019-04-05T12:43:08.048Z,12.30
2019-04-05T12:45:34.209Z,12.10
2019-04-05T12:48:00.465Z,12.30
2019-04-05T12:50:26.620Z,12.20
2019-04-05T12:52:54.703Z,12.20
2019-04-05T12:55:23.860Z,11.90
2019-04-05T12:57:49.491Z,12.70
2019-04-05T13:00:16.575Z,13.20
2019-04-05T13:02:42.738Z,12.60
2019-04-05T13:05:09.555Z,12.20
2019-04-05T13:07:35.749Z,12.30
2019-04-05T13:10:04.295Z,12.50
2019-04-05T13:12:30.596Z,12.70
2019-04-05T13:15:11.160Z,13.50
2019-04-05T13:17:24.981Z,13.30
2019-04-05T13:19:51.371Z,12.80
2019-04-05T13:22:17.554Z,13.20
2019-04-05T13:24:43.711Z,13.60
2019-04-05T13:27:11.730Z,13.90
2019-04-05T13:29:37.968Z,13.30
2019-04-05T13:32:04.280Z,13.00
2019-04-05T13:34:30.505Z,12.50
2019-04-05T13:36:56.656Z,12.40
2019-04-05T13:39:22.910Z,11.90
2019-04-05T13:41:49.170Z,12.00
2019-04-05T13:44:15.361Z,12.50
2019-04-05T13:46:42.976Z,12.70
2019-04-05T13:49:10.565Z,12.50
2019-04-05T13:51:37.170Z,12.40
2019-04-05T13:54:03.496Z,12.20
2019-04-05T13:56:29.748Z,12.20
2019-04-05T13:58:55.924Z,12.00
2019-04-05T14:01:22.131Z,11.80
2019-04-05T14:03:50.138Z,12.00
2019-04-05T14:06:17.002Z,12.20
2019-04-05T14:08:43.167Z,12.20
2019-04-05T14:11:10.462Z,12.50
2019-04-05T14:13:42.130Z,12.90
2019-04-05T14:16:06.270Z,13.10
2019-04-05T14:18:32.592Z,13.60
2019-04-05T14:20:58.807Z,13.60
2019-04-05T14:23:24.969Z,13.30
2019-04-05T14:25:51.144Z,12.90
2019-04-05T14:28:17.304Z,12.70
2019-04-05T14:30:43.503Z,12.70
2019-04-05T14:33:10.709Z,12.90
2019-04-05T14:35:36.926Z,12.70
2019-04-05T14:38:03.205Z,11.90
2019-04-05T14:40:32.840Z,11.80
2019-04-05T14:42:57.640Z,11.20
2019-04-05T14:45:23.824Z,11.20
2019-04-05T14:47:50.079Z,10.90
2019-04-05T14:50:16.334Z,11.00
2019-04-05T14:52:42.630Z,11.10
2019-04-05T14:55:09.048Z,10.70
2019-04-05T14:57:36.529Z,10.90
2019-04-05T15:00:05.905Z,11.10
2019-04-05T15:02:32.296Z,11.30
2019-04-05T15:04:58.481Z,11.30
2019-04-05T15:07:24.703Z,11.00
2019-04-05T15:09:54.652Z,11.30
2019-04-05T15:12:19.184Z,11.20
2019-04-05T15:14:45.360Z,10.80
2019-04-05T15:17:13.106Z,10.90
2019-04-05T15:19:39.989Z,10.80
2019-04-05T15:22:06.510Z,10.70
2019-04-05T15:24:34.300Z,10.70
2019-04-05T15:27:00.725Z,11.10
2019-04-05T15:29:26.988Z,10.60
2019-04-05T15:31:53.449Z,10.40
2019-04-05T15:34:21.209Z,10.50
2019-04-05T15:36:47.443Z,10.60
2019-04-05T15:39:14.802Z,10.70
2019-04-05T15:41:40.982Z,11.00
2019-04-05T15:44:07.156Z,11.00
2019-04-05T15:46:33.407Z,10.90
2019-04-05T15:48:59.599Z,10.60
2019-04-05T15:51:25.795Z,10.60
2019-04-05T15:53:51.983Z,10.50
2019-04-05T15:56:18.470Z,10.60
2019-04-05T15:58:44.816Z,10.90
2019-04-05T16:01:11.286Z,10.80
2019-04-05T16:03:38.609Z,10.90
2019-04-05T16:06:04.765Z,10.70
2019-04-05T16:08:30.951Z,10.60
2019-04-05T16:10:57.181Z,10.50
2019-04-05T16:13:25.348Z,10.30
2019-04-05T16:15:51.514Z,10.40
2019-04-05T16:18:17.690Z,10.30
2019-04-05T16:20:43.864Z,10.10
2019-04-05T16:23:10.230Z,10.10
2019-04-05T16:25:36.542Z,10.10
2019-04-05T16:28:02.913Z,10.10
2019-04-05T16:30:29.077Z,10.10
2019-04-05T16:32:55.301Z,10.20
2019-04-05T16:35:21.454Z,10.00
2019-04-05T16:37:47.623Z,9.90
2019-04-05T16:40:16.122Z,9.80
2019-04-05T16:42:42.386Z,9.90
2019-04-05T16:45:09.312Z,9.80
2019-04-05T16:47:37.248Z,9.70
2019-04-05T16:50:06.116Z,9.60
2019-04-05T16:52:44.073Z,9.60
2019-04-05T16:55:01.263Z,9.50
2019-04-05T16:57:29.386Z,9.50
2019-04-05T16:59:55.563Z,9.40
2019-04-05T17:02:21.829Z,9.30
2019-04-05T17:04:48.997Z,9.30
2019-04-05T17:07:15.333Z,9.30
2019-04-05T17:09:41.487Z,9.20
2019-04-05T17:12:08.677Z,9.30
2019-04-05T17:14:35.312Z,9.20
2019-04-05T17:17:01.666Z,9.10
2019-04-05T17:19:27.882Z,9.00
2019-04-05T17:21:54.063Z,8.90
2019-04-05T17:24:20.330Z,8.90
2019-04-05T17:26:46.786Z,8.80
2019-04-05T17:29:12.978Z,8.70
2019-04-05T17:31:39.150Z,8.70
2019-04-05T17:34:05.340Z,8.70
2019-04-05T17:36:31.520Z,8.60
2019-04-05T17:38:57.747Z,8.50
2019-04-05T17:41:24.936Z,8.50
2019-04-05T17:43:51.127Z,8.50
2019-04-05T17:46:17.276Z,8.50
2019-04-05T17:48:43.646Z,8.40
2019-04-05T17:51:09.806Z,8.40
2019-04-05T17:53:36.302Z,8.30
2019-04-05T17:56:02.779Z,8.30
2019-04-05T17:58:31.231Z,8.20
2019-04-05T18:00:57.549Z,8.20
2019-04-05T18:03:23.780Z,8.10
2019-04-05T18:05:51.529Z,8.10
2019-04-05T18:08:17.918Z,8.10
2019-04-05T18:10:44.119Z,8.10
2019-04-05T18:13:10.288Z,8.00
2019-04-05T18:15:36.472Z,8.00
2019-04-05T18:18:02.752Z,8.00
2019-04-05T18:20:28.938Z,7.90
2019-04-05T18:22:55.105Z,7.90
2019-04-05T18:25:21.274Z,7.90
2019-04-05T18:27:47.450Z,7.80
2019-04-05T18:30:15.731Z,7.80
2019-04-05T18:32:41.914Z,7.70
2019-04-05T18:35:08.481Z,7.70
2019-04-05T18:37:35.330Z,7.60
2019-04-05T18:40:03.037Z,7.50
2019-04-05T18:42:29.304Z,7.40
2019-04-05T18:44:56.478Z,7.40
2019-04-05T18:47:22.646Z,7.40
2019-04-05T18:49:48.850Z,7.40
2019-04-05T18:52:15.075Z,7.40
2019-04-05T18:54:41.240Z,7.30
2019-04-05T18:57:07.541Z,7.30
2019-04-05T18:59:33.729Z,7.20
2019-04-05T19:01:59.932Z,7.20
2019-04-05T19:04:26.091Z,7.10
2019-04-05T19:06:52.303Z,7.10
2019-04-05T19:09:18.620Z,7.00
2019-04-05T19:11:44.805Z,7.00
2019-04-05T19:14:11.004Z,6.90
2019-04-05T19:16:37.216Z,6.90
2019-04-05T19:19:03.369Z,6.80
2019-04-05T19:21:29.541Z,6.80
2019-04-05T19:23:56.716Z,6.60
2019-04-05T19:26:22.900Z,6.50
2019-04-05T19:28:49.172Z,6.50
2019-04-05T19:48:35.052Z,5.80
2019-04-05T19:51:01.147Z,5.70
2019-04-05T19:53:27.640Z,5.70
2019-04-05T19:55:54.873Z,5.70
2019-04-05T19:58:22.112Z,5.60
2019-04-05T20:00:48.327Z,5.60
2019-04-05T20:03:14.619Z,5.70
2019-04-05T20:05:40.820Z,5.60
2019-04-05T20:08:06.992Z,5.50
2019-04-05T20:10:33.151Z,5.60
2019-04-05T20:12:59.480Z,5.50
2019-04-05T20:15:25.666Z,5.50
2019-04-05T20:17:51.836Z,5.40
2019-04-05T20:20:18.145Z,5.30
2019-04-05T20:22:44.304Z,5.20
2019-04-05T20:25:10.704Z,5.20
2019-04-05T20:27:37.899Z,5.20
2019-04-05T20:30:05.598Z,5.10
2019-04-05T20:32:31.878Z,5.10
2019-04-05T20:34:58.085Z,5.10
2019-04-05T20:37:24.249Z,5.00
2019-04-05T20:39:50.424Z,4.90
2019-04-05T20:42:16.608Z,4.90
2019-04-05T20:44:42.819Z,4.80
2019-04-05T20:47:09.019Z,4.80
2019-04-05T20:49:35.188Z,4.70
2019-04-05T20:52:01.405Z,4.70
2019-04-05T20:54:27.657Z,4.60
2019-04-05T20:56:53.924Z,4.70
2019-04-05T20:59:20.104Z,4.90
2019-04-05T21:01:46.521Z,5.00
2019-04-05T21:04:12.704Z,5.10
2019-04-05T21:06:39.856Z,5.10
2019-04-05T21:09:06.788Z,5.20
2019-04-05T21:11:33.282Z,5.20
2019-04-05T21:13:59.432Z,5.30
2019-04-05T21:16:25.714Z,5.30
2019-04-05T21:18:51.945Z,5.40
2019-04-05T21:21:18.149Z,5.40
2019-04-05T21:23:44.484Z,5.40
2019-04-05T21:26:10.708Z,5.50
2019-04-05T21:28:36.996Z,5.40
2019-04-05T21:31:03.153Z,5.30
2019-04-05T21:33:29.341Z,5.20
2019-04-05T21:35:55.508Z,5.20
2019-04-05T21:38:21.683Z,5.30
2019-04-05T21:40:47.891Z,5.40
2019-04-05T21:43:15.065Z,5.30
2019-04-05T21:45:41.235Z,5.30
2019-04-05T21:48:07.426Z,5.40
2019-04-05T21:50:33.585Z,5.50
2019-04-05T21:53:00.015Z,5.60
2019-04-05T21:55:26.171Z,5.60
2019-04-05T21:57:52.391Z,5.70
2019-04-05T22:00:22.369Z,5.70
2019-04-05T22:02:50.622Z,5.70
2019-04-05T22:05:16.832Z,5.80
2019-04-05T22:07:43.016Z,5.80
2019-04-05T22:10:09.412Z,5.70
2019-04-05T22:12:35.577Z,5.60
2019-04-05T22:15:01.936Z,5.60
2019-04-05T22:17:28.196Z,5.60
2019-04-05T22:19:54.631Z,5.60
2019-04-05T22:22:20.793Z,5.60
2019-04-05T22:24:58.319Z,5.60
2019-04-05T22:27:16.064Z,5.60
2019-04-05T22:29:42.226Z,5.70
2019-04-05T22:32:08.388Z,5.70
2019-04-05T22:34:34.571Z,5.80
2019-04-05T22:37:00.848Z,5.90
2019-04-05T22:39:27.064Z,5.90
2019-04-05T22:41:57.193Z,6.00
2019-04-05T22:44:23.368Z,6.00
2019-04-05T22:46:49.563Z,6.00
2019-04-05T22:49:15.721Z,5.90
2019-04-05T22:51:41.888Z,5.90
2019-04-05T22:54:08.075Z,5.90
2019-04-05T22:56:34.237Z,5.90
2019-04-05T22:59:00.426Z,5.90
2019-04-05T23:01:26.609Z,5.80
2019-04-05T23:03:52.774Z,6.00
2019-04-05T23:06:19.041Z,6.00
2019-04-05T23:08:45.458Z,6.00
2019-04-05T23:11:11.629Z,5.90
2019-04-05T23:13:37.835Z,5.90
2019-04-05T23:16:04.016Z,6.00
2019-04-05T23:18:30.171Z,5.90
2019-04-05T23:20:56.357Z,5.90
2019-04-05T23:23:22.538Z,6.00
2019-04-05T23:25:48.771Z,6.00
2019-04-05T23:28:15.038Z,5.90
2019-04-05T23:30:41.313Z,5.90
2019-04-05T23:33:07.482Z,6.00
2019-04-05T23:35:33.650Z,6.10
2019-04-05T23:37:59.817Z,6.20
2019-04-05T23:40:26.011Z,6.20
2019-04-05T23:42:52.178Z,6.20
2019-04-05T23:45:18.352Z,6.30
2019-04-05T23:47:44.560Z,6.20
2019-04-05T23:50:11.020Z,6.30
2019-04-05T23:52:37.188Z,6.20
2019-04-05T23:55:04.781Z,6.30
2019-04-05T23:57:31.004Z,6.40
2019-04-05T23:59:57.307Z,6.20
